Time;durP1;ratioP1;P1;durP2;ratioP2;P2;SDS_P1;SDS_P2;PMS_P1;PMS_P2;Temp;Humidity;BMP_temperature;BMP_pressure;BME280_temperature;BME280_humidity;BME280_pressure;Samples;Min_cycle;Max_cycle;Signal;HPM_P1;HPM_P2
2022/09/21 00:01:28;;;;;;;;;;;;;;;;;;;;;
2022/09/21 00:04:49;;;;;;;2.47;2.00;;;;;;;15.62;58.38;100275.85;2216482;89;25890;-81
2022/09/21 00:08:18;;;;;;;2.58;1.85;;;;;;;15.62;58.38;100275.85;2222699;87;25766;-81
2022/09/21 00:12:00;;;;;;;1.92;1.60;;;;;;;15.63;58.41;100273.69;2247725;87;25672;-80
2022/09/21 00:19:20;;;;;;;2.98;2.35;;;;;;;15.64;58.46;100265.36;2186379;87;26743;-79
2022/09/21 00:23:29;;;;;;;;;;;;;;;;;;;;;
2022/09/21 00:27:19;;;;;;;3.17;1.87;;;;;;;15.64;58.51;100269.30;2243078;88;25749;-81
2022/09/21 00:30:40;;;;;;;2.10;1.60;;;;;;;15.65;58.51;100269.73;2240097;88;25687;-81
2022/09/21 00:34:17;;;;;;;4.20;1.70;;;;;;;15.65;58.50;100267.11;2224284;88;25284;-80
2022/09/21 00:38:01;;;;;;;3.70;3.10;;;;;;;15.66;58.55;100272.79;2091808;92;25998;-82
2022/09/21 00:41:35;;;;;;;8.13;3.57;;;;;;;15.66;58.55;100273.73;2022369;97;25906;-81
2022/09/21 00:45:19;;;;;;;8.15;3.95;;;;;;;15.67;58.54;100272.84;2022385;97;31893;-81
2022/09/21 00:48:39;;;;;;;5.83;4.30;;;;;;;15.67;58.55;100276.78;2082044;92;25811;-80
2022/09/21 00:52:15;;;;;;;5.45;4.83;;;;;;;15.68;58.56;100272.41;2136230;91;25705;-81
2022/09/21 00:56:19;;;;;;;;;;;;;;;;;;;;;
2022/09/21 00:59:55;;;;;;;8.93;6.92;;;;;;;15.70;58.61;100273.30;2000787;97;26078;-79
2022/09/21 01:03:46;;;;;;;13.80;9.20;;;;;;;15.71;58.58;100277.66;1936074;100;26335;-80
2022/09/21 01:07:17;;;;;;;22.42;12.93;;;;;;;15.71;58.57;100276.34;1935066;100;25869;-81
2022/09/21 01:11:27;;;;;;;26.52;13.08;;;;;;;15.70;58.59;100271.98;1935247;100;25773;-79
2022/09/21 01:15:21;;;;;;;27.93;13.83;;;;;;;15.70;58.56;100282.05;1935846;97;25781;-80
2022/09/21 01:19:06;;;;;;;30.27;15.43;;;;;;;15.70;58.60;100271.98;1880674;103;25778;-80
2022/09/21 01:23:41;;;;;;;37.88;19.07;;;;;;;15.71;58.64;100282.48;1784097;108;26058;-81
2022/09/21 01:31:04;;;;;;;41.30;21.55;;;;;;;15.71;58.69;100286.86;1780600;109;25496;-80
2022/09/21 01:35:17;;;;;;;46.15;21.70;;;;;;;15.71;58.71;100291.67;1778174;109;26014;-80
2022/09/21 01:39:05;;;;;;;40.70;21.48;;;;;;;15.72;58.72;100292.55;1782881;109;26817;-79
2022/09/21 01:42:41;;;;;;;38.45;20.62;;;;;;;15.71;58.71;100294.30;1789706;109;25850;-80
2022/09/21 01:46:31;;;;;;;34.50;20.15;;;;;;;15.71;58.73;100298.25;1804918;108;25767;-80
2022/09/21 01:50:17;;;;;;;38.13;20.77;;;;;;;15.72;58.76;100299.12;1797969;108;25787;-80
2022/09/21 02:00:35;;;;;;;33.28;18.42;;;;;;;15.71;58.80;100304.82;2152830;90;25715;-78
2022/09/21 02:04:19;;;;;;;35.10;17.32;;;;;;;15.71;58.82;100305.27;2125495;90;25980;-79
2022/09/21 02:07:54;;;;;;;27.90;16.50;;;;;;;15.72;58.82;100307.87;2083690;95;25675;-80
2022/09/21 02:11:23;;;;;;;23.95;14.45;;;;;;;15.73;58.86;100312.28;2082603;95;25776;-80
2022/09/21 02:15:01;;;;;;;19.62;14.05;;;;;;;15.73;58.86;100313.59;2033958;95;26386;-79
2022/09/21 02:19:12;;;;;;;19.62;12.23;;;;;;;15.74;58.86;100311.84;2033972;95;25718;-79
2022/09/21 02:22:53;;;;;;;20.60;11.12;;;;;;;15.75;58.89;100314.90;2032278;95;25872;-79
2022/09/21 02:26:46;;;;;;;20.97;11.70;;;;;;;15.75;58.88;100318.84;2015642;95;25830;-79
2022/09/21 02:30:24;;;;;;;14.18;9.65;;;;;;;15.75;58.90;100319.71;2033462;95;25779;-81
2022/09/21 02:34:11;;;;;;;16.02;10.38;;;;;;;15.76;58.88;100321.89;2034140;95;25746;-81
2022/09/21 02:41:50;;;;;;;10.50;7.65;;;;;;;15.74;58.91;100319.28;2044171;96;25320;-80
2022/09/21 02:45:34;;;;;;;10.00;6.87;;;;;;;15.75;58.93;100321.03;2047525;95;25820;-80
2022/09/21 02:49:11;;;;;;;10.82;7.62;;;;;;;15.75;58.95;100321.47;2037593;95;25772;-81
2022/09/21 02:52:39;;;;;;;8.85;5.80;;;;;;;15.74;58.99;100326.30;2044288;96;25731;-79
2022/09/21 02:56:10;;;;;;;6.78;5.55;;;;;;;15.74;58.95;100330.23;2061296;93;25814;-80
2022/09/21 02:59:40;;;;;;;6.45;5.47;;;;;;;15.75;59.00;100334.17;2125889;90;25941;-80
2022/09/21 03:03:22;;;;;;;9.58;5.40;;;;;;;15.74;59.00;100332.42;2171075;85;25655;-80
2022/09/21 03:07:06;;;;;;;5.42;4.92;;;;;;;15.73;58.96;100327.18;2315032;83;25697;-81
2022/09/21 03:10:34;;;;;;;5.22;4.72;;;;;;;15.72;59.03;100330.66;2345036;83;25679;-80
2022/09/21 03:14:15;;;;;;;;;;;;;;;;;;;;;
2022/09/21 03:17:51;;;;;;;6.25;4.92;;;;;;;15.70;59.06;100335.05;2376801;82;25693;-80
2022/09/21 03:21:23;;;;;;;5.27;4.77;;;;;;;15.70;59.12;100335.92;2380388;82;25646;-79
2022/09/21 03:24:56;;;;;;;4.20;3.80;;;;;;;15.72;59.11;100337.23;2383374;81;25633;-79
2022/09/21 03:32:14;;;;;;;4.50;4.10;;;;;;;15.70;59.14;100339.87;2284388;86;25673;-80
2022/09/21 03:35:45;;;;;;;8.23;4.35;;;;;;;15.71;59.13;100344.69;2284915;85;25804;-80
2022/09/21 03:39:20;;;;;;;5.33;4.10;;;;;;;15.71;59.11;100346.88;2285029;86;25677;-80
2022/09/21 03:42:55;;;;;;;3.52;3.00;;;;;;;15.69;59.15;100343.38;2284296;86;25862;-80
2022/09/21 03:53:54;;;;;;;3.02;2.72;;;;;;;15.68;59.18;100342.92;2156625;90;25931;-80
2022/09/21 03:58:01;;;;;;;4.85;3.17;;;;;;;15.68;59.23;100344.67;2220631;87;25853;-80
2022/09/21 04:01:48;;;;;;;3.33;2.80;;;;;;;15.68;59.28;100352.12;2220847;87;25789;-79
2022/09/21 04:05:26;;;;;;;3.17;2.85;;;;;;;15.68;59.28;100361.31;2112524;92;25926;-79
2022/09/21 04:09:05;;;;;;;3.35;2.52;;;;;;;15.71;59.30;100365.71;2110498;93;25797;-79
2022/09/21 04:12:49;;;;;;;3.22;2.90;;;;;;;15.71;59.25;100363.08;2112617;93;25746;-80
2022/09/21 04:16:27;;;;;;;;;;;;;;;;;;;;;
2022/09/21 04:19:50;;;;;;;2.65;2.42;;;;;;;15.70;59.30;100365.28;2109058;93;25686;-80
2022/09/21 04:23:14;;;;;;;4.12;2.20;;;;;;;15.72;59.34;100370.95;2113118;93;25470;-79
2022/09/21 04:26:39;;;;;;;3.30;2.52;;;;;;;15.73;59.32;100370.55;2114332;92;25973;-79
2022/09/21 04:30:00;;;;;;;2.20;2.00;;;;;;;15.74;59.29;100373.61;2147875;92;25847;-79
2022/09/21 04:33:44;;;;;;;4.70;1.80;;;;;;;15.75;59.33;100375.34;2147622;92;30092;-79
2022/09/21 04:37:29;;;;;;;;;;;;;;;;;;;;;
2022/09/21 04:41:11;;;;;;;4.35;2.20;;;;;;;15.76;59.37;100374.47;2136704;92;25810;-79
2022/09/21 04:44:42;;;;;;;4.97;1.77;;;;;;;15.76;59.38;100377.09;2149033;89;25769;-79
2022/09/21 04:48:16;;;;;;;3.02;2.08;;;;;;;15.76;59.41;100378.41;2181249;90;25671;-80
2022/09/21 04:51:43;;;;;;;1.85;1.75;;;;;;;15.77;59.40;100388.95;2182919;90;25800;-80
2022/09/21 04:55:34;;;;;;;2.87;1.72;;;;;;;15.76;59.40;100388.92;2180138;89;25996;-80
2022/09/21 04:59:34;;;;;;;3.05;1.60;;;;;;;15.78;59.42;100391.13;2145706;91;26010;-79
2022/09/21 05:03:30;;;;;;;3.12;1.85;;;;;;;15.79;59.45;100396.82;2249688;87;25738;-80
2022/09/21 05:07:20;;;;;;;1.55;1.37;;;;;;;15.81;59.46;100396.41;2253341;87;25796;-80
2022/09/21 05:10:46;;;;;;;2.17;1.35;;;;;;;15.80;59.44;100402.55;2170335;90;25865;-80
2022/09/21 05:14:19;;;;;;;2.75;1.22;;;;;;;15.80;59.48;100403.86;2114339;92;26581;-81
2022/09/21 05:18:06;;;;;;;1.72;1.50;;;;;;;15.82;59.50;100402.96;2094438;94;25741;-80
2022/09/21 05:21:54;;;;;;;;;;;;;;;;;;;;;
2022/09/21 05:25:29;;;;;;;2.08;1.37;;;;;;;15.88;59.49;100401.23;2005282;95;26303;-80
2022/09/21 05:29:29;;;;;;;1.72;1.37;;;;;;;15.90;59.47;100411.33;2026269;96;25819;-80
2022/09/21 05:33:16;;;;;;;2.00;1.32;;;;;;;15.93;59.43;100415.25;2052523;96;25736;-82
2022/09/21 05:37:20;;;;;;;;;;;;;;;;;;;;;
2022/09/21 05:40:49;;;;;;;2.00;1.50;;;;;;;15.97;59.39;100421.86;1981497;97;26375;-82
2022/09/21 05:44:23;;;;;;;1.32;1.22;;;;;;;16.00;59.39;100427.56;1932225;102;26015;-77
2022/09/21 05:48:09;;;;;;;4.03;1.50;;;;;;;16.03;59.33;100432.80;1916004;102;25747;-75
2022/09/21 05:51:53;;;;;;;1.90;1.30;;;;;;;16.04;59.32;100439.41;1932088;101;25764;-80
2022/09/21 05:55:52;;;;;;;1.75;1.27;;;;;;;16.05;59.31;100441.14;1966811;99;25864;-81
2022/09/21 05:59:43;;;;;;;4.47;2.05;;;;;;;16.07;59.29;100443.80;2002884;95;25683;-81
2022/09/21 06:07:12;;;;;;;2.20;1.40;;;;;;;16.21;59.23;100439.44;2550761;77;31303;-79
2022/09/21 06:10:38;;;;;;;2.62;1.75;;;;;;;16.21;59.17;100439.88;2507700;78;25622;-78
2022/09/21 06:14:24;;;;;;;;;;;;;;;;;;;;;
2022/09/21 06:17:52;;;;;;;2.15;1.27;;;;;;;16.27;59.05;100447.34;2511672;78;25618;-79
2022/09/21 06:24:49;;;;;;;1.32;1.20;;;;;;;16.31;58.94;100449.53;2310304;85;25679;-81
2022/09/21 06:28:43;;;;;;;4.60;2.50;;;;;;;16.32;58.91;100458.30;2310795;85;31042;-81
2022/09/21 06:32:15;;;;;;;4.47;1.92;;;;;;;16.38;61.58;100459.19;2309299;85;25688;-80
2022/09/21 06:35:40;;;;;;;3.00;1.60;;;;;;;16.75;63.89;100460.11;2258278;87;25748;-78
2022/09/21 06:39:07;;;;;;;2.80;1.20;;;;;;;17.12;64.42;100460.52;2260310;86;25767;-81
2022/09/21 06:46:38;;;;;;;2.27;1.10;;;;;;;17.62;64.51;100469.59;2114181;92;25706;-81
2022/09/21 06:50:32;;;;;;;1.55;1.07;;;;;;;17.91;63.93;100463.33;2050091;94;25835;-81
2022/09/21 06:54:30;;;;;;;1.60;1.10;;;;;;;18.15;63.33;100467.59;1998664;98;25771;-81
2022/09/21 06:58:12;;;;;;;2.27;1.02;;;;;;;18.38;62.75;100480.20;1968488;100;25576;-80
2022/09/21 07:02:22;;;;;;;3.27;1.10;;;;;;;18.58;61.96;100483.14;1968148;99;25762;-81
2022/09/21 07:13:53;;;;;;;4.53;0.95;;;;;;;19.04;59.56;100490.73;1809956;107;25955;-83
2022/09/21 07:17:13;;;;;;;2.20;1.15;;;;;;;19.19;58.88;100486.59;1765208;109;26617;-85
2022/09/21 07:20:42;;;;;;;1.40;0.90;;;;;;;19.29;58.28;100485.61;1780765;109;25943;-80
2022/09/21 07:24:27;;;;;;;1.92;0.82;;;;;;;19.37;57.90;100491.25;1733099;113;25955;-80
2022/09/21 07:27:53;;;;;;;1.52;0.88;;;;;;;19.42;57.38;100496.06;1738227;112;26123;-80
2022/09/21 07:31:23;;;;;;;3.83;1.02;;;;;;;19.52;56.95;100499.03;1728657;113;26045;-79
2022/09/21 07:35:19;;;;;;;8.35;0.90;;;;;;;19.58;56.60;100493.68;1772322;109;26106;-80
2022/09/21 07:38:50;;;;;;;2.37;1.00;;;;;;;19.67;56.22;100498.88;1768127;110;25828;-80
2022/09/21 07:42:29;;;;;;;2.17;0.80;;;;;;;19.76;55.73;100497.45;1703789;114;25917;-80
2022/09/21 07:49:59;;;;;;;3.05;1.02;;;;;;;20.03;54.68;100509.91;1715837;114;25905;-79
2022/09/21 07:53:27;;;;;;;2.33;0.93;;;;;;;21.95;53.95;100508.89;1719080;113;25897;-80
2022/09/21 08:00:54;;;;;;;1.87;0.68;;;;;;;26.35;47.81;100519.71;1705310;113;26001;-80
2022/09/21 08:04:43;;;;;;;;;;;;;;;;;;;;;
2022/09/21 08:08:19;;;;;;;0.68;0.50;;;;;;;29.10;41.50;100533.32;1804717;102;26045;-80
2022/09/21 08:12:06;;;;;;;0.75;0.50;;;;;;;28.45;40.73;100532.04;1885309;103;25882;-80
2022/09/21 08:15:43;;;;;;;1.05;0.60;;;;;;;27.44;40.23;100533.95;1835306;106;25811;-80
2022/09/21 08:19:12;;;;;;;1.27;0.55;;;;;;;26.40;40.67;100527.56;1888028;100;25962;-81
2022/09/21 08:22:59;;;;;;;0.98;0.68;;;;;;;25.87;41.16;100530.89;1887866;103;25833;-80
2022/09/21 08:26:42;;;;;;;2.20;0.60;;;;;;;25.31;41.21;100538.23;1887817;103;26021;-80
2022/09/21 08:30:15;;;;;;;1.17;0.57;;;;;;;24.70;41.73;100539.37;1871994;104;25844;-80
2022/09/21 08:33:52;;;;;;;4.10;0.70;;;;;;;24.29;41.86;100535.28;1893156;101;25803;-80
2022/09/21 08:37:28;;;;;;;2.83;0.60;;;;;;;23.94;42.16;100537.67;1919090;99;25854;-80
2022/09/21 08:41:11;;;;;;;3.27;0.70;;;;;;;23.73;42.43;100536.05;2011232;93;25839;-80
2022/09/21 08:45:08;;;;;;;1.55;0.60;;;;;;;23.54;42.36;100540.96;2001243;98;25866;-80
2022/09/21 08:48:44;;;;;;;1.37;0.60;;;;;;;23.41;42.57;100546.66;1867957;105;25917;-80
2022/09/21 08:52:23;;;;;;;0.45;0.37;;;;;;;23.16;42.59;100541.13;1855445;105;25848;-80
2022/09/21 09:00:28;;;;;;;6.53;0.60;;;;;;;22.73;42.85;100547.00;1804693;107;25935;-79
2022/09/21 09:04:31;;;;;;;2.58;0.78;;;;;;;22.52;42.96;100544.39;1765165;110;26239;-79
2022/09/21 09:08:33;;;;;;;2.12;0.72;;;;;;;22.36;43.17;100539.00;1771431;110;25926;-80
2022/09/21 09:16:58;;;;;;;2.10;0.80;;;;;;;22.75;43.49;100547.84;1799189;108;25890;-79
2022/09/21 09:20:45;;;;;;;;;;;;;;;;;;;;;
2022/09/21 09:29:02;;;;;;;1.55;0.70;;;;;;;25.72;40.94;100545.23;1798252;108;26092;-79
2022/09/21 09:32:53;;;;;;;2.17;0.60;;;;;;;25.26;40.68;100543.75;1830583;105;25896;-79
2022/09/21 09:36:41;;;;;;;1.75;0.60;;;;;;;24.80;40.62;100551.05;1811772;106;25988;-79
2022/09/21 09:40:39;;;;;;;1.80;0.70;;;;;;;24.48;40.90;100548.48;1848646;104;25871;-80
2022/09/21 09:44:57;;;;;;;;;;;;;;;;;;;;;
2022/09/21 09:48:46;;;;;;;0.70;0.50;;;;;;;24.28;41.00;100551.73;1936348;101;26624;-79
2022/09/21 09:52:22;;;;;;;;;;;;;;;24.03;41.24;100552.94;1953847;99;25881;-78
2022/09/21 09:56:16;;;;;;;0.82;0.82;;;;;;;23.86;41.39;100544.99;2008826;96;25850;-80
2022/09/21 09:59:48;;;;;;;1.85;0.70;;;;;;;23.80;41.84;100536.74;1906159;102;26042;-80
2022/09/21 10:03:20;;;;;;;1.07;0.50;;;;;;;23.96;41.73;100539.81;1923790;101;25974;-82
2022/09/21 10:06:54;;;;;;;6.17;0.53;;;;;;;24.16;41.76;100540.56;1913524;102;26044;-81
2022/09/21 10:10:32;;;;;;;3.40;0.50;;;;;;;25.24;41.29;100544.25;1897067;103;25356;-81
2022/09/21 10:14:10;;;;;;;2.57;0.30;;;;;;;26.26;40.25;100527.64;1909844;103;25843;-81
2022/09/21 10:17:45;;;;;;;;;;;;;;;;;;;;;
2022/09/21 10:21:24;;;;;;;1.07;0.50;;;;;;;26.26;38.89;100534.33;1878016;105;25849;-80
2022/09/21 10:25:09;;;;;;;0.60;0.50;;;;;;;26.05;38.62;100537.80;1909802;101;25985;-79
2022/09/21 10:32:39;;;;;;;2.33;0.40;;;;;;;27.14;38.35;100551.77;1952788;100;25946;-78
2022/09/21 10:36:41;;;;;;;0.40;0.40;;;;;;;28.38;37.33;100538.61;1887625;103;25827;-80
2022/09/21 10:40:44;;;;;;;0.93;0.42;;;;;;;29.33;36.34;100537.52;1887307;101;25883;-81
2022/09/21 10:44:42;;;;;;;3.05;0.45;;;;;;;29.42;35.63;100532.98;1908030;102;26234;-80
2022/09/21 10:48:24;;;;;;;1.10;0.35;;;;;;;28.53;34.92;100539.73;1952051;98;25812;-81
2022/09/21 10:52:10;;;;;;;0.85;0.40;;;;;;;27.90;35.41;100535.48;1942892;100;26361;-80
2022/09/21 10:55:31;;;;;;;0.90;0.40;;;;;;;27.66;35.40;100526.72;1860829;104;26787;-80
2022/09/21 10:59:28;;;;;;;0.70;0.40;;;;;;;28.18;35.40;100534.19;1861805;106;25860;-79
2022/09/21 11:03:14;;;;;;;0.40;0.40;;;;;;;28.78;35.02;100530.00;1843599;104;25891;-80
2022/09/21 11:07:04;;;;;;;2.33;0.35;;;;;;;28.82;34.54;100531.58;1835457;106;25925;-78
2022/09/21 11:11:09;;;;;;;1.42;0.40;;;;;;;28.55;34.51;100526.62;1882441;104;26619;-79
2022/09/21 11:15:14;;;;;;;0.75;0.47;;;;;;;27.90;34.48;100522.56;1928716;102;25876;-79
2022/09/21 11:19:09;;;;;;;0.40;0.40;;;;;;;27.24;34.65;100530.37;1927083;101;26244;-79
2022/09/21 11:23:02;;;;;;;1.42;0.60;;;;;;;27.58;34.99;100523.53;1929659;102;25769;-80
2022/09/21 11:26:40;;;;;;;1.80;0.40;;;;;;;27.70;34.98;100518.94;1930114;102;26467;-80
2022/09/21 11:30:18;;;;;;;0.80;0.40;;;;;;;27.39;34.73;100526.61;1974897;99;25914;-80
2022/09/21 11:34:43;;;;;;;0.80;0.50;;;;;;;26.88;34.83;100523.39;2016559;95;26092;-79
2022/09/21 11:38:43;;;;;;;0.42;0.42;;;;;;;26.47;35.12;100527.73;2085525;93;26087;-79
2022/09/21 11:43:05;;;;;;;0.82;0.40;;;;;;;26.07;35.46;100526.13;2115435;89;26316;-81
2022/09/21 11:47:30;;;;;;;;;;;;;;;;;;;;;
2022/09/21 11:51:38;;;;;;;1.57;0.40;;;;;;;25.69;35.79;100511.53;2142997;88;25711;-81
2022/09/21 11:55:46;;;;;;;2.33;0.33;;;;;;;25.57;35.97;100502.62;2214544;87;25755;-82
2022/09/21 11:59:38;;;;;;;3.20;0.70;;;;;;;26.13;36.19;100502.33;2236343;87;25664;-85
2022/09/21 12:03:34;;;;;;;2.33;0.45;;;;;;;26.85;35.98;100513.68;2215657;88;25928;-82
2022/09/21 12:07:29;;;;;;;4.37;0.40;;;;;;;27.38;35.57;100511.02;2191307;89;25811;-84
2022/09/21 12:11:26;;;;;;;0.60;0.40;;;;;;;27.66;35.19;100503.95;2171055;89;25863;-86
2022/09/21 12:15:21;;;;;;;0.62;0.45;;;;;;;27.89;34.50;100513.66;2152359;90;25364;-81
2022/09/21 12:19:15;;;;;;;0.23;0.20;;;;;;;28.13;34.19;100506.27;2142204;91;25869;-82
2022/09/21 12:23:13;;;;;;;;;;;;;;;28.43;33.71;100496.41;2119123;92;25726;-82
2022/09/21 12:27:16;;;;;;;0.30;0.30;;;;;;;28.17;33.30;100490.44;2094465;91;25834;-80
2022/09/21 12:31:11;;;;;;;0.47;0.30;;;;;;;28.27;33.34;100493.55;2094499;93;26133;-80
2022/09/21 12:35:05;;;;;;;0.50;0.40;;;;;;;28.48;33.11;100487.64;2007789;98;26011;-81
2022/09/21 12:39:26;;;;;;;0.95;0.50;;;;;;;28.70;32.75;100493.70;1980081;99;26175;-81
2022/09/21 12:51:33;;;;;;;;;;;;;;;;;;;;;
2022/09/21 12:56:04;;;;;;;0.28;0.20;;;;;;;28.08;31.69;100482.86;1841202;104;25945;-81
2022/09/21 13:00:05;;;;;;;0.40;0.30;;;;;;;27.69;31.74;100480.19;1828569;103;25940;-82
2022/09/21 13:17:08;;;;;;;0.70;0.30;;;;;;;25.95;32.54;100490.53;1828934;107;25801;-81
2022/09/21 13:24:37;;;;;;;0.20;0.20;;;;;;;25.24;33.65;100508.23;1799308;108;25940;-80
2022/09/21 13:28:23;;;;;;;1.62;0.40;;;;;;;25.07;33.95;100495.91;1800147;107;26076;-80
2022/09/21 13:32:23;;;;;;;0.35;0.30;;;;;;;25.16;34.38;100500.50;1822600;106;26710;-79
2022/09/21 13:36:19;;;;;;;0.50;0.33;;;;;;;25.47;34.65;100497.20;1813956;107;25460;-80
2022/09/21 13:40:24;;;;;;;0.37;0.30;;;;;;;25.75;34.67;100499.72;1835199;105;25845;-83
2022/09/21 13:44:09;;;;;;;0.98;0.20;;;;;;;25.93;34.63;100498.22;1896273;101;25359;-80
2022/09/21 13:48:00;;;;;;;;;;;;;;;;;;;;;
2022/09/21 13:51:35;;;;;;;0.85;0.40;;;;;;;26.33;34.46;100496.20;1926713;100;25770;-80
2022/09/21 13:55:08;;;;;;;3.10;0.90;;;;;;;26.84;34.43;100501.72;1921870;101;26068;-80
2022/09/21 13:58:53;;;;;;;2.08;0.50;;;;;;;26.94;34.76;100496.38;1922750;100;25809;-81
2022/09/21 14:02:49;;;;;;;1.30;0.90;;;;;;;26.93;35.18;100499.11;1923592;101;25778;-80
2022/09/21 14:06:16;;;;;;;1.00;0.80;;;;;;;26.79;35.54;100493.00;2024463;97;25857;-80
2022/09/21 14:10:11;;;;;;;1.87;1.25;;;;;;;26.80;36.33;100498.30;2043252;96;25844;-80
2022/09/21 14:13:45;;;;;;;1.52;0.80;;;;;;;26.87;36.58;100480.19;2029891;96;26018;-81
2022/09/21 14:17:45;;;;;;;0.62;0.60;;;;;;;26.79;36.66;100476.48;1997476;98;25901;-80
2022/09/21 14:21:16;;;;;;;0.97;0.70;;;;;;;26.68;36.57;100484.56;2009229;98;26115;-80
2022/09/21 14:25:10;;;;;;;1.87;0.80;;;;;;;26.56;36.61;100478.80;2045609;95;25989;-80
2022/09/21 14:28:51;;;;;;;0.55;0.50;;;;;;;26.40;36.66;100488.34;2001836;97;26290;-81
2022/09/21 14:32:27;;;;;;;1.47;0.80;;;;;;;26.18;36.72;100484.77;2030630;97;25619;-80
2022/09/21 14:36:04;;;;;;;0.95;0.55;;;;;;;25.96;36.79;100480.27;1957058;101;25780;-80
2022/09/21 14:39:51;;;;;;;0.98;0.50;;;;;;;25.60;36.98;100460.66;1925285;102;25860;-81
2022/09/21 14:43:21;;;;;;;3.22;0.60;;;;;;;25.48;36.92;100480.25;1934509;100;25357;-80
2022/09/21 14:46:58;;;;;;;2.08;0.53;;;;;;;25.20;37.06;100478.58;1917871;101;25558;-80
2022/09/21 14:50:39;;;;;;;1.05;0.68;;;;;;;25.05;37.15;100472.44;1918106;103;25890;-78
2022/09/21 14:54:54;;;;;;;1.55;0.90;;;;;;;24.94;37.28;100467.01;1917917;101;25860;-80
2022/09/21 14:58:50;;;;;;;1.32;0.82;;;;;;;24.87;37.40;100469.48;1909293;101;26034;-81
2022/09/21 15:02:27;;;;;;;1.52;0.53;;;;;;;24.78;37.70;100469.78;1908110;102;25693;-79
2022/09/21 15:14:46;;;;;;;1.52;0.60;;;;;;;24.56;38.23;100480.27;2071390;95;25868;-81
2022/09/21 15:18:31;;;;;;;2.20;0.65;;;;;;;24.35;38.18;100476.47;2074119;93;26038;-81
2022/09/21 15:22:19;;;;;;;1.20;0.50;;;;;;;24.23;38.26;100488.41;1981768;99;26131;-78
2022/09/21 15:25:57;;;;;;;1.45;0.60;;;;;;;24.09;38.25;100482.61;1999626;97;26608;-80
2022/09/21 15:29:30;;;;;;;1.12;0.70;;;;;;;23.99;38.30;100486.47;1999730;97;25861;-79
2022/09/21 15:33:00;;;;;;;2.50;0.55;;;;;;;23.87;38.32;100487.72;1989884;97;25845;-80
2022/09/21 15:36:33;;;;;;;0.82;0.47;;;;;;;23.76;38.42;100491.17;1959987;99;25862;-79
2022/09/21 15:40:09;;;;;;;1.60;0.68;;;;;;;23.65;38.52;100498.07;2013922;98;25965;-79
2022/09/21 15:44:00;;;;;;;1.30;0.60;;;;;;;23.57;38.61;100499.62;2018141;96;25815;-80
2022/09/21 15:47:32;;;;;;;1.87;0.60;;;;;;;23.48;38.65;100512.31;2000688;96;25571;-80
2022/09/21 15:51:42;;;;;;;2.17;0.93;;;;;;;23.30;38.78;100511.03;2016135;96;25784;-79
2022/09/21 15:55:25;;;;;;;0.85;0.60;;;;;;;;;;2017060;96;25791;-79
2022/09/21 15:58:58;;;;;;;1.15;0.45;;;;;;;22.62;39.41;100515.83;2016260;96;25566;-77
2022/09/21 16:02:32;;;;;;;1.80;0.50;;;;;;;22.18;40.05;100515.53;2041214;94;26575;-78
2022/09/21 16:06:03;;;;;;;0.80;0.45;;;;;;;21.95;40.50;100517.31;2066775;95;26141;-79
2022/09/21 16:09:29;;;;;;;1.00;0.72;;;;;;;21.88;40.85;100524.52;2076968;93;25943;-77
2022/09/21 16:17:19;;;;;;;0.55;0.40;;;;;;;21.64;41.75;100516.16;2097619;90;25994;-78
2022/09/21 16:20:49;;;;;;;0.57;0.50;;;;;;;21.56;42.13;100523.37;2170309;91;26047;-77
2022/09/21 16:24:26;;;;;;;0.95;0.55;;;;;;;21.50;42.54;100523.94;2170962;90;25763;-78
2022/09/21 16:28:20;;;;;;;1.72;0.65;;;;;;;21.44;42.91;100523.62;2171983;89;26520;-78
2022/09/21 16:31:50;;;;;;;0.85;0.45;;;;;;;21.36;43.17;100521.55;2144965;91;25784;-77
2022/09/21 16:35:37;;;;;;;1.35;0.53;;;;;;;21.28;43.54;100524.77;2161999;91;25758;-78
2022/09/21 16:39:08;;;;;;;1.37;0.50;;;;;;;21.20;43.70;100535.06;2162011;91;25795;-78
2022/09/21 16:42:36;;;;;;;0.65;0.40;;;;;;;21.06;43.86;100534.44;2141606;91;25944;-78
2022/09/21 16:46:01;;;;;;;0.93;0.53;;;;;;;20.93;43.95;100528.91;2170700;90;25322;-77
2022/09/21 16:49:26;;;;;;;0.65;0.30;;;;;;;20.83;44.17;100533.48;2034531;94;25761;-78
2022/09/21 16:53:00;;;;;;;1.05;0.53;;;;;;;20.77;44.26;100541.98;2033807;97;25923;-77
2022/09/21 16:56:28;;;;;;;1.37;0.45;;;;;;;20.65;44.30;100539.06;2017888;95;25734;-78
2022/09/21 16:59:49;;;;;;;0.50;0.40;;;;;;;20.57;44.44;100541.83;2069935;95;25952;-78
2022/09/21 17:03:29;;;;;;;0.72;0.40;;;;;;;20.50;44.62;100537.49;2069893;95;30992;-77
2022/09/21 17:06:45;;;;;;;3.30;0.60;;;;;;;20.45;44.68;100540.64;2068349;94;26498;-77
2022/09/21 17:10:26;;;;;;;0.70;0.40;;;;;;;20.38;44.84;100541.17;2068755;94;31556;-78
2022/09/21 17:13:59;;;;;;;4.65;2.60;;;;;;;20.33;44.96;100539.52;2064224;94;26001;-80
2022/09/21 17:17:34;;;;;;;8.23;2.17;;;;;;;20.24;45.25;100541.83;2052016;94;25880;-76
2022/09/21 17:22:38;;;;;;;8.13;1.75;;;;;;;20.21;46.07;100549.80;2505484;77;25467;-79
2022/09/21 17:26:03;;;;;;;4.75;2.00;;;;;;;20.13;46.03;100553.88;2469728;80;26107;-80
2022/09/21 17:29:27;;;;;;;3.90;1.30;;;;;;;20.05;46.17;100550.47;2469222;79;26257;-79
2022/09/21 17:32:50;;;;;;;5.05;2.42;;;;;;;20.00;46.30;100558.90;2471168;79;25626;-75
2022/09/21 17:36:21;;;;;;;4.85;1.37;;;;;;;19.95;46.36;100558.09;2384955;82;25538;-81
2022/09/21 17:39:43;;;;;;;3.50;1.40;;;;;;;19.90;46.44;100560.77;2385033;82;25203;-80
2022/09/21 17:47:32;;;;;;;2.67;1.12;;;;;;;19.75;46.49;100566.27;2250749;85;25737;-81
2022/09/21 17:51:04;;;;;;;4.45;1.17;;;;;;;19.69;46.64;100575.58;2229741;87;25998;-81
2022/09/21 17:54:30;;;;;;;6.15;1.32;;;;;;;19.61;46.77;100579.60;2197719;87;25947;-78
2022/09/21 17:58:24;;;;;;;3.33;1.20;;;;;;;19.58;46.93;100578.31;2193000;90;25735;-78
2022/09/21 18:02:01;;;;;;;3.35;1.30;;;;;;;19.55;46.95;100573.92;2160196;90;26528;-79
2022/09/21 18:05:29;;;;;;;4.00;1.80;;;;;;;19.50;47.08;100572.20;2160102;90;25756;-79
2022/09/21 18:08:58;;;;;;;4.60;1.40;;;;;;;19.44;47.16;100574.48;2191853;88;25893;-79
2022/09/21 18:12:51;;;;;;;3.50;2.12;;;;;;;19.40;47.29;100574.51;2170876;90;25966;-79
2022/09/21 18:16:33;;;;;;;3.15;1.77;;;;;;;19.37;47.31;100578.50;2187633;90;26462;-79
2022/09/21 18:20:53;;;;;;;4.15;2.12;;;;;;;19.32;47.46;100581.20;2188184;88;25680;-79
2022/09/21 18:24:30;;;;;;;2.85;2.00;;;;;;;19.27;47.53;100580.34;2191141;89;25804;-79
2022/09/21 18:27:47;;;;;;;3.40;1.55;;;;;;;19.19;47.70;100589.67;2192538;88;25744;-79
2022/09/21 18:31:42;;;;;;;2.15;1.55;;;;;;;19.16;47.73;100591.02;2197436;85;25757;-78
2022/09/21 18:35:44;;;;;;;1.80;1.60;;;;;;;19.11;47.92;100590.19;2318803;85;25884;-78
2022/09/21 18:39:20;;;;;;;4.53;1.70;;;;;;;19.05;47.99;100591.11;2427558;81;25568;-78
2022/09/21 18:43:17;;;;;;;2.12;1.70;;;;;;;18.99;48.08;100592.47;2425898;80;25646;-78
2022/09/21 18:51:58;;;;;;;1.35;1.20;;;;;;;18.89;48.32;100594.75;2363926;82;25652;-78
2022/09/21 18:55:37;;;;;;;2.70;1.72;;;;;;;18.84;48.46;100595.23;2328128;83;25766;-78
2022/09/21 18:59:06;;;;;;;3.00;1.45;;;;;;;18.80;48.58;100593.52;2328253;84;25837;-79
2022/09/21 19:02:35;;;;;;;2.85;1.55;;;;;;;18.74;48.74;100587.81;2329799;83;25872;-77
2022/09/21 19:06:19;;;;;;;;;;;;;;;18.72;48.86;100592.22;2336746;84;26076;-80
2022/09/21 19:10:20;;;;;;;2.37;1.52;;;;;;;18.69;48.96;100592.20;2325434;83;25732;-77
2022/09/21 19:14:34;;;;;;;2.95;1.82;;;;;;;18.64;49.03;100593.56;2258739;84;25661;-80
2022/09/21 19:18:33;;;;;;;1.95;1.15;;;;;;;18.59;49.14;100591.38;2300517;84;25686;-81
2022/09/21 19:22:17;;;;;;;1.95;1.22;;;;;;;18.54;49.28;100587.91;2343332;81;25918;-80
2022/09/21 19:25:54;;;;;;;1.65;1.55;;;;;;;18.49;49.43;100590.13;2392014;80;25685;-81
2022/09/21 19:30:03;;;;;;;1.75;1.45;;;;;;;18.46;49.54;100591.45;2391001;81;25622;-83
2022/09/21 19:33:37;;;;;;;3.45;1.35;;;;;;;18.44;49.66;100592.80;2141444;91;25821;-81
2022/09/21 19:37:02;;;;;;;4.15;1.55;;;;;;;18.40;49.79;100589.75;2162401;91;25299;-81
2022/09/21 19:40:38;;;;;;;1.55;1.22;;;;;;;18.37;49.95;100592.41;2146695;89;26582;-80
2022/09/21 19:44:23;;;;;;;3.98;1.75;;;;;;;18.35;50.05;100584.47;2159251;90;25768;-80
2022/09/21 19:48:03;;;;;;;5.75;1.55;;;;;;;18.33;50.08;100590.67;2169630;90;25808;-81